createdAt,value
2023-01-25T08:46:32.760Z,1021.53
2023-01-25T08:47:32.738Z,1021.5
2023-01-25T08:48:32.736Z,1021.54
2023-01-25T08:49:32.736Z,1021.49
2023-01-25T08:50:32.741Z,1021.53
2023-01-25T08:51:32.752Z,1021.46
2023-01-25T08:52:32.744Z,1021.47
2023-01-25T08:53:32.785Z,1021.45
2023-01-25T08:54:32.774Z,1021.43
2023-01-25T08:55:32.749Z,1021.42
2023-01-25T08:56:33.365Z,1021.4
2023-01-25T08:57:32.754Z,1021.36
2023-01-25T08:58:32.756Z,1021.33
2023-01-25T08:59:32.765Z,1021.29
2023-01-25T09:00:32.764Z,1021.29
2023-01-25T09:01:32.785Z,1021.28
2023-01-25T09:02:32.826Z,1021.27
2023-01-25T09:03:32.804Z,1021.27
2023-01-25T09:04:32.973Z,1021.24
2023-01-25T09:05:32.769Z,1021.27
2023-01-25T09:06:32.775Z,1021.27
2023-01-25T09:07:32.772Z,1021.25
2023-01-25T09:08:32.780Z,1021.25
2023-01-25T09:09:32.784Z,1021.24
2023-01-25T09:10:32.795Z,1021.25
2023-01-25T09:11:32.780Z,1021.24
2023-01-25T09:12:32.782Z,1021.2
2023-01-25T09:13:32.784Z,1021.18
2023-01-25T09:14:32.793Z,1021.19
2023-01-25T09:15:32.786Z,1021.22
2023-01-25T09:16:32.792Z,1021.26
2023-01-25T09:17:32.826Z,1021.21
2023-01-25T09:18:32.866Z,1021.22
2023-01-25T09:19:32.840Z,1021.23
2023-01-25T09:20:33.278Z,1021.2
2023-01-25T09:21:32.813Z,1021.21
2023-01-25T09:22:32.806Z,1021.23
2023-01-25T09:23:33.265Z,1021.24
2023-01-25T09:24:34.665Z,1021.17
2023-01-25T09:25:32.812Z,1021.17
2023-01-25T09:26:32.817Z,1021.13
2023-01-25T09:27:33.424Z,1021.18
2023-01-25T09:28:32.894Z,1021.15
2023-01-25T09:29:33.030Z,1021.18
2023-01-25T09:30:44.987Z,1021.15
2023-01-25T09:31:33.300Z,1021.15
2023-01-25T09:32:33.032Z,1021.13
2023-01-25T09:33:32.990Z,1021.1
2023-01-25T09:34:33.018Z,1021.13
2023-01-25T09:35:32.842Z,1021.11
2023-01-25T09:36:32.839Z,1021.08
2023-01-25T09:37:32.884Z,1021.12
2023-01-25T09:38:32.841Z,1021.15
2023-01-25T09:39:32.845Z,1021.13
2023-01-25T09:40:32.840Z,1021.14
2023-01-25T09:41:32.848Z,1021.12
2023-01-25T09:42:32.854Z,1021.15
2023-01-25T09:43:32.936Z,1021.12
2023-01-25T09:44:32.850Z,1021.09
2023-01-25T09:45:32.856Z,1021.15
2023-01-25T09:46:32.911Z,1021.11
2023-01-25T09:47:32.865Z,1021.1
2023-01-25T09:48:32.858Z,1021.1
2023-01-25T09:49:32.870Z,1021.09
2023-01-25T09:50:32.896Z,1021.09
2023-01-25T09:51:32.870Z,1021.06
2023-01-25T09:52:32.869Z,1021.03
2023-01-25T09:53:32.881Z,1021.02
2023-01-25T09:54:39.265Z,1021.01
2023-01-25T09:55:32.883Z,1021
2023-01-25T09:56:32.884Z,1020.98
2023-01-25T09:57:32.885Z,1020.91
2023-01-25T09:58:32.885Z,1020.92
2023-01-25T09:59:32.886Z,1020.92
2023-01-25T10:00:32.891Z,1020.94
2023-01-25T10:01:38.858Z,1020.92
2023-01-25T10:02:33.615Z,1020.91
2023-01-25T10:03:32.897Z,1020.93
2023-01-25T10:04:32.893Z,1020.93
2023-01-25T10:05:32.903Z,1020.9
2023-01-25T10:06:32.925Z,1020.9
2023-01-25T10:07:32.908Z,1020.91
2023-01-25T10:08:32.910Z,1020.91
2023-01-25T10:09:32.907Z,1020.91
2023-01-25T10:10:32.910Z,1020.88
2023-01-25T10:11:32.916Z,1020.85
2023-01-25T10:12:32.918Z,1020.84
2023-01-25T10:13:32.916Z,1020.83
2023-01-25T10:14:32.920Z,1020.82
2023-01-25T10:15:32.929Z,1020.78
2023-01-25T10:16:33.308Z,1020.79
2023-01-25T10:17:32.925Z,1020.77
2023-01-25T10:18:32.933Z,1020.75
2023-01-25T10:19:32.929Z,1020.78
2023-01-25T10:20:32.994Z,1020.75
2023-01-25T10:21:32.937Z,1020.77
2023-01-25T10:22:32.960Z,1020.74
2023-01-25T10:23:32.943Z,1020.77
2023-01-25T10:24:32.948Z,1020.73
2023-01-25T10:25:32.949Z,1020.71
2023-01-25T10:26:32.957Z,1020.69
2023-01-25T10:27:32.962Z,1020.66
2023-01-25T10:28:32.955Z,1020.62
2023-01-25T10:29:32.975Z,1020.62
2023-01-25T10:30:33.020Z,1020.58
2023-01-25T10:31:33.058Z,1020.56
2023-01-25T10:32:33.043Z,1020.5
2023-01-25T10:33:35.811Z,1020.53
2023-01-25T10:34:34.094Z,1020.53
2023-01-25T10:35:36.278Z,1020.5
2023-01-25T10:36:32.977Z,1020.47
2023-01-25T10:37:32.992Z,1020.5
2023-01-25T10:38:33.023Z,1020.42
2023-01-25T10:39:32.982Z,1020.4
2023-01-25T10:40:32.987Z,1020.36
2023-01-25T10:41:32.993Z,1020.39
2023-01-25T10:42:33.208Z,1020.38
2023-01-25T10:43:32.991Z,1020.39
2023-01-25T10:44:33.002Z,1020.38
2023-01-25T10:45:33.009Z,1020.36
2023-01-25T10:46:33.064Z,1020.36
2023-01-25T10:47:33.004Z,1020.29
2023-01-25T10:48:33.023Z,1020.3
2023-01-25T10:49:33.014Z,1020.3
2023-01-25T10:50:33.011Z,1020.26
2023-01-25T10:51:33.018Z,1020.24
2023-01-25T10:52:33.017Z,1020.21
2023-01-25T10:53:33.020Z,1020.21
2023-01-25T10:54:33.075Z,1020.22
2023-01-25T10:55:33.026Z,1020.22
2023-01-25T10:56:33.027Z,1020.22
2023-01-25T10:57:33.029Z,1020.18
2023-01-25T10:58:33.042Z,1020.18
2023-01-25T10:59:33.033Z,1020.14
2023-01-25T11:00:33.276Z,1020.15
2023-01-25T11:01:33.068Z,1020.17
2023-01-25T11:02:33.118Z,1020.17
2023-01-25T11:03:33.089Z,1020.15
2023-01-25T11:04:33.151Z,1020.18
2023-01-25T11:05:33.051Z,1020.12
2023-01-25T11:06:33.075Z,1020.12
2023-01-25T11:07:33.066Z,1020.14
2023-01-25T11:08:33.070Z,1020.09
2023-01-25T11:09:33.105Z,1020.06
2023-01-25T11:10:33.098Z,1020.1
2023-01-25T11:11:33.348Z,1020.05
2023-01-25T11:12:33.069Z,1020
2023-01-25T11:13:33.100Z,1020.04
2023-01-25T11:14:33.090Z,1019.96
2023-01-25T11:15:33.080Z,1020
2023-01-25T11:16:33.093Z,1019.95
2023-01-25T11:17:33.087Z,1019.91
2023-01-25T11:18:33.086Z,1019.91
2023-01-25T11:19:33.106Z,1019.91
2023-01-25T11:20:33.092Z,1019.88
2023-01-25T11:21:33.103Z,1019.91
2023-01-25T11:22:33.105Z,1019.86
2023-01-25T11:23:33.107Z,1019.78
2023-01-25T11:24:33.110Z,1019.85
2023-01-25T11:25:33.138Z,1019.79
2023-01-25T11:26:33.182Z,1019.78
2023-01-25T11:27:33.122Z,1019.77
2023-01-25T11:28:33.114Z,1019.73
2023-01-25T11:29:33.120Z,1019.68
2023-01-25T11:30:33.165Z,1019.64
2023-01-25T11:31:33.290Z,1019.65
2023-01-25T11:32:33.129Z,1019.62
2023-01-25T11:33:33.129Z,1019.6
2023-01-25T11:34:33.135Z,1019.59
2023-01-25T11:35:33.148Z,1019.51
2023-01-25T11:36:33.378Z,1019.54
2023-01-25T11:37:33.166Z,1019.5
2023-01-25T11:38:33.144Z,1019.51
2023-01-25T11:39:33.150Z,1019.46
2023-01-25T11:40:33.451Z,1019.44
2023-01-25T11:41:34.907Z,1019.41
2023-01-25T11:42:33.678Z,1019.41
2023-01-25T11:43:33.770Z,1019.43
2023-01-25T11:44:33.402Z,1019.38
2023-01-25T11:45:33.406Z,1019.41
2023-01-25T11:46:33.205Z,1019.39
2023-01-25T11:47:33.179Z,1019.4
2023-01-25T11:48:33.205Z,1019.35
2023-01-25T11:49:33.407Z,1019.38
2023-01-25T11:50:33.180Z,1019.36
2023-01-25T11:51:33.184Z,1019.34
2023-01-25T11:52:33.194Z,1019.32
2023-01-25T11:53:33.189Z,1019.31
2023-01-25T11:54:33.193Z,1019.3
2023-01-25T11:55:33.195Z,1019.29
2023-01-25T11:56:33.209Z,1019.28
2023-01-25T11:57:33.201Z,1019.21
2023-01-25T11:58:33.226Z,1019.2
2023-01-25T11:59:33.209Z,1019.16
2023-01-25T12:00:33.249Z,1019.17
2023-01-25T12:01:33.209Z,1019.11
2023-01-25T12:02:33.279Z,1019.07
2023-01-25T12:03:33.300Z,1019.03
2023-01-25T12:04:33.364Z,1019.04
2023-01-25T12:05:33.222Z,1019.04
2023-01-25T12:06:33.426Z,1019
2023-01-25T12:07:33.231Z,1019.05
2023-01-25T12:08:33.232Z,1019.02
2023-01-25T12:09:33.386Z,1019.05
2023-01-25T12:10:33.235Z,1019.01
2023-01-25T12:11:33.235Z,1018.98
2023-01-25T12:12:33.237Z,1018.96
2023-01-25T12:13:33.249Z,1018.9
2023-01-25T12:14:33.274Z,1018.91
2023-01-25T12:15:33.250Z,1018.91
2023-01-25T12:16:33.249Z,1018.81
2023-01-25T12:17:33.676Z,1018.8
2023-01-25T12:18:33.263Z,1018.77
2023-01-25T12:19:33.257Z,1018.78
2023-01-25T12:20:33.497Z,1018.76
2023-01-25T12:21:33.275Z,1018.74
2023-01-25T12:22:33.277Z,1018.71
2023-01-25T12:23:33.271Z,1018.69
2023-01-25T12:24:33.320Z,1018.7
2023-01-25T12:25:33.500Z,1018.65
2023-01-25T12:26:33.280Z,1018.65
2023-01-25T12:27:33.281Z,1018.66
2023-01-25T12:28:33.313Z,1018.61
2023-01-25T12:29:33.287Z,1018.66
2023-01-25T12:30:33.343Z,1018.62
2023-01-25T12:31:33.399Z,1018.59
2023-01-25T12:32:33.905Z,1018.59
2023-01-25T12:33:33.294Z,1018.55
2023-01-25T12:34:33.297Z,1018.56
2023-01-25T12:35:33.303Z,1018.54
2023-01-25T12:36:33.325Z,1018.53
2023-01-25T12:37:33.306Z,1018.48
2023-01-25T12:38:33.313Z,1018.46
2023-01-25T12:39:33.314Z,1018.47
2023-01-25T12:40:33.318Z,1018.43
2023-01-25T12:41:33.329Z,1018.41
2023-01-25T12:42:33.329Z,1018.4
2023-01-25T12:43:33.323Z,1018.44
2023-01-25T12:44:33.329Z,1018.35
2023-01-25T12:45:33.476Z,1018.38
2023-01-25T12:46:33.408Z,1018.36
2023-01-25T12:47:33.335Z,1018.36
2023-01-25T12:48:33.337Z,1018.31
2023-01-25T12:49:33.341Z,1018.3
2023-01-25T12:50:33.338Z,1018.28
2023-01-25T12:51:33.343Z,1018.25
2023-01-25T12:52:33.358Z,1018.27
2023-01-25T12:53:33.959Z,1018.22
2023-01-25T12:54:33.353Z,1018.22
2023-01-25T12:55:33.353Z,1018.21
2023-01-25T12:56:33.366Z,1018.18
2023-01-25T12:57:33.363Z,1018.13
2023-01-25T12:58:37.983Z,1018.08
2023-01-25T12:59:33.365Z,1018.09
2023-01-25T13:00:33.548Z,1018.04
2023-01-25T13:01:33.369Z,1017.98
2023-01-25T13:02:33.398Z,1017.99
2023-01-25T13:03:33.375Z,1018
2023-01-25T13:04:33.381Z,1017.94
2023-01-25T13:05:33.384Z,1017.96
2023-01-25T13:06:33.390Z,1017.97
2023-01-25T13:07:33.395Z,1017.94
2023-01-25T13:08:33.399Z,1017.92
2023-01-25T13:09:33.414Z,1017.92
2023-01-25T13:10:33.394Z,1017.91
2023-01-25T13:11:33.398Z,1017.89
2023-01-25T13:12:33.403Z,1017.91
2023-01-25T13:13:33.411Z,1017.88
2023-01-25T13:14:33.409Z,1017.85
2023-01-25T13:15:33.410Z,1017.83
2023-01-25T13:16:33.462Z,1017.8
2023-01-25T13:17:36.413Z,1017.79
2023-01-25T13:18:33.448Z,1017.78
2023-01-25T13:19:33.427Z,1017.79
2023-01-25T13:20:33.426Z,1017.74
2023-01-25T13:21:33.439Z,1017.74
2023-01-25T13:22:33.428Z,1017.73
2023-01-25T13:23:33.433Z,1017.7
2023-01-25T13:24:33.444Z,1017.68
2023-01-25T13:25:33.731Z,1017.67
2023-01-25T13:26:33.440Z,1017.66
2023-01-25T13:27:33.443Z,1017.62
2023-01-25T13:28:33.443Z,1017.57
2023-01-25T13:29:33.452Z,1017.56
2023-01-25T13:30:33.467Z,1017.52
2023-01-25T13:31:46.476Z,1017.55
2023-01-25T13:32:33.463Z,1017.48
2023-01-25T13:33:33.490Z,1017.51
2023-01-25T13:34:33.488Z,1017.48
2023-01-25T13:35:33.564Z,1017.52
2023-01-25T13:36:33.472Z,1017.46
2023-01-25T13:37:33.483Z,1017.45
2023-01-25T13:38:33.476Z,1017.44
2023-01-25T13:39:33.482Z,1017.4
2023-01-25T13:40:33.479Z,1017.4
2023-01-25T13:41:33.482Z,1017.36
2023-01-25T13:42:33.509Z,1017.38
2023-01-25T13:43:33.497Z,1017.39
2023-01-25T13:44:33.490Z,1017.32
2023-01-25T13:45:33.864Z,1017.35
2023-01-25T13:46:33.524Z,1017.35
2023-01-25T13:47:33.503Z,1017.31
2023-01-25T13:48:33.514Z,1017.29
2023-01-25T13:49:34.533Z,1017.24
2023-01-25T13:50:33.534Z,1017.25
2023-01-25T13:51:33.527Z,1017.25
2023-01-25T13:52:33.516Z,1017.19
2023-01-25T13:53:33.511Z,1017.26
2023-01-25T13:54:33.525Z,1017.25
2023-01-25T13:55:33.522Z,1017.21
2023-01-25T13:56:33.526Z,1017.18
2023-01-25T13:57:33.522Z,1017.18
2023-01-25T13:58:33.532Z,1017.15
2023-01-25T13:59:33.532Z,1017.13
2023-01-25T14:00:33.561Z,1017.16
2023-01-25T14:01:33.553Z,1017.17
2023-01-25T14:02:33.544Z,1017.15
2023-01-25T14:03:33.542Z,1017.13
2023-01-25T14:04:33.542Z,1017.16
2023-01-25T14:05:33.562Z,1017.12
2023-01-25T14:06:33.629Z,1017.12
2023-01-25T14:07:33.549Z,1017.11
2023-01-25T14:08:33.562Z,1017.11
2023-01-25T14:09:33.560Z,1017.07
2023-01-25T14:10:33.569Z,1017.03
2023-01-25T14:11:33.560Z,1017.02
2023-01-25T14:12:33.563Z,1017
2023-01-25T14:13:33.571Z,1016.97
2023-01-25T14:14:33.576Z,1016.98
2023-01-25T14:15:33.570Z,1016.99
2023-01-25T14:16:33.671Z,1016.97
2023-01-25T14:17:33.579Z,1016.93
2023-01-25T14:18:33.583Z,1016.95
2023-01-25T14:19:34.357Z,1016.92
2023-01-25T14:20:33.580Z,1016.9
2023-01-25T14:21:33.584Z,1016.87
2023-01-25T14:22:33.864Z,1016.88
2023-01-25T14:23:33.594Z,1016.85
2023-01-25T14:24:33.594Z,1016.87
2023-01-25T14:25:33.594Z,1016.89
2023-01-25T14:26:33.597Z,1016.9
2023-01-25T14:27:34.210Z,1016.85
2023-01-25T14:28:33.602Z,1016.86
2023-01-25T14:29:33.664Z,1016.8
2023-01-25T14:30:33.634Z,1016.81
2023-01-25T14:31:33.711Z,1016.8
2023-01-25T14:32:33.617Z,1016.8
2023-01-25T14:33:33.613Z,1016.8
2023-01-25T14:34:33.619Z,1016.82
2023-01-25T14:35:42.136Z,1016.83
2023-01-25T14:36:33.624Z,1016.81
2023-01-25T14:37:33.623Z,1016.78
2023-01-25T14:38:33.668Z,1016.79
2023-01-25T14:39:33.629Z,1016.77
2023-01-25T14:40:33.632Z,1016.73
2023-01-25T14:41:33.638Z,1016.77
2023-01-25T14:42:33.706Z,1016.77
2023-01-25T14:43:33.663Z,1016.74
2023-01-25T14:44:33.758Z,1016.75
2023-01-25T14:45:33.644Z,1016.74
2023-01-25T14:46:33.668Z,1016.74
2023-01-25T14:47:33.650Z,1016.7
2023-01-25T14:48:33.649Z,1016.65
2023-01-25T14:49:33.674Z,1016.57
2023-01-25T14:50:33.656Z,1016.61
2023-01-25T14:51:34.803Z,1016.58
2023-01-25T14:52:33.770Z,1016.57
2023-01-25T14:53:33.771Z,1016.58
2023-01-25T14:54:33.711Z,1016.54
2023-01-25T14:55:33.678Z,1016.55
2023-01-25T14:56:33.733Z,1016.55
2023-01-25T14:57:33.693Z,1016.47
2023-01-25T14:58:34.386Z,1016.44
2023-01-25T14:59:33.683Z,1016.42
2023-01-25T15:00:35.106Z,1016.35
2023-01-25T15:01:33.782Z,1016.38
2023-01-25T15:02:33.724Z,1016.37
2023-01-25T15:03:33.702Z,1016.35
2023-01-25T15:04:35.449Z,1016.36
2023-01-25T15:05:33.727Z,1016.35
2023-01-25T15:06:33.697Z,1016.35
2023-01-25T15:07:33.739Z,1016.35
2023-01-25T15:08:33.716Z,1016.35
2023-01-25T15:09:33.706Z,1016.35
2023-01-25T15:10:33.747Z,1016.34
2023-01-25T15:11:33.750Z,1016.34
2023-01-25T15:12:33.726Z,1016.29
2023-01-25T15:13:33.713Z,1016.26
2023-01-25T15:14:33.715Z,1016.27
2023-01-25T15:15:33.718Z,1016.26
2023-01-25T15:16:33.852Z,1016.25
2023-01-25T15:17:33.721Z,1016.25
2023-01-25T15:18:33.729Z,1016.22
2023-01-25T15:19:33.733Z,1016.22
2023-01-25T15:20:33.734Z,1016.23
2023-01-25T15:21:33.741Z,1016.21
2023-01-25T15:22:33.749Z,1016.24
2023-01-25T15:23:33.736Z,1016.23
2023-01-25T15:24:33.800Z,1016.18
2023-01-25T15:25:33.772Z,1016.17
2023-01-25T15:26:33.808Z,1016.17
2023-01-25T15:27:33.747Z,1016.15
2023-01-25T15:28:33.760Z,1016.09
2023-01-25T15:29:33.764Z,1016.13
2023-01-25T15:30:33.817Z,1016.15
2023-01-25T15:31:33.972Z,1016.12
2023-01-25T15:32:33.758Z,1016.11
2023-01-25T15:33:33.759Z,1016.06
2023-01-25T15:34:33.850Z,1016.09
2023-01-25T15:35:33.767Z,1016.05
2023-01-25T15:36:33.782Z,1016.08
2023-01-25T15:37:33.959Z,1016.08
2023-01-25T15:38:33.805Z,1016.01
2023-01-25T15:39:33.768Z,1016
2023-01-25T15:40:33.776Z,1015.98
2023-01-25T15:41:33.792Z,1015.93
2023-01-25T15:42:33.802Z,1015.97
2023-01-25T15:43:33.979Z,1015.93
2023-01-25T15:44:33.786Z,1015.9
2023-01-25T15:45:33.957Z,1015.89
2023-01-25T15:46:33.794Z,1015.9
2023-01-25T15:47:33.787Z,1015.92
2023-01-25T15:48:33.800Z,1015.91
2023-01-25T15:49:33.791Z,1015.89
2023-01-25T15:50:33.793Z,1015.93
2023-01-25T15:51:35.648Z,1015.91
2023-01-25T15:52:33.799Z,1015.87
2023-01-25T15:53:33.826Z,1015.88
2023-01-25T15:54:33.808Z,1015.88
2023-01-25T15:55:33.806Z,1015.85
2023-01-25T15:56:33.818Z,1015.8
2023-01-25T15:57:35.137Z,1015.82
2023-01-25T15:58:33.858Z,1015.85
2023-01-25T15:59:33.991Z,1015.84
2023-01-25T16:00:33.958Z,1015.78
2023-01-25T16:01:33.926Z,1015.78
2023-01-25T16:02:33.889Z,1015.77
2023-01-25T16:03:33.832Z,1015.75
2023-01-25T16:04:33.838Z,1015.76
2023-01-25T16:05:33.831Z,1015.74
2023-01-25T16:06:33.844Z,1015.75
2023-01-25T16:07:33.827Z,1015.72
2023-01-25T16:08:33.909Z,1015.72
2023-01-25T16:09:33.867Z,1015.7
2023-01-25T16:10:33.839Z,1015.69
2023-01-25T16:11:33.848Z,1015.67
2023-01-25T16:12:33.849Z,1015.71
2023-01-25T16:13:33.845Z,1015.69
2023-01-25T16:14:33.867Z,1015.67
2023-01-25T16:15:34.063Z,1015.67
2023-01-25T16:16:33.871Z,1015.66
2023-01-25T16:17:33.866Z,1015.64
2023-01-25T16:18:33.853Z,1015.6
2023-01-25T16:19:34.093Z,1015.57
2023-01-25T16:20:33.860Z,1015.58
2023-01-25T16:21:33.868Z,1015.53
2023-01-25T16:22:33.864Z,1015.54
2023-01-25T16:23:33.861Z,1015.59
2023-01-25T16:24:33.965Z,1015.53
2023-01-25T16:25:33.864Z,1015.63
2023-01-25T16:26:33.875Z,1015.56
2023-01-25T16:27:33.875Z,1015.57
2023-01-25T16:28:33.874Z,1015.61
2023-01-25T16:29:33.969Z,1015.57
2023-01-25T16:30:33.963Z,1015.57
2023-01-25T16:31:33.943Z,1015.53
2023-01-25T16:32:33.884Z,1015.52
2023-01-25T16:33:33.880Z,1015.55
2023-01-25T16:34:33.898Z,1015.47
2023-01-25T16:35:33.886Z,1015.51
2023-01-25T16:36:34.234Z,1015.47
2023-01-25T16:37:34.003Z,1015.49
2023-01-25T16:38:33.890Z,1015.45
2023-01-25T16:39:33.894Z,1015.47
2023-01-25T16:40:33.897Z,1015.43
2023-01-25T16:41:33.904Z,1015.45
2023-01-25T16:42:33.898Z,1015.39
2023-01-25T16:43:42.351Z,1015.42
2023-01-25T16:44:33.902Z,1015.45
2023-01-25T16:45:33.913Z,1015.42
2023-01-25T16:46:33.946Z,1015.41
2023-01-25T16:47:33.919Z,1015.44
2023-01-25T16:48:33.949Z,1015.44
2023-01-25T16:49:33.926Z,1015.46
2023-01-25T16:50:33.937Z,1015.43
2023-01-25T16:51:33.938Z,1015.45
2023-01-25T16:52:33.942Z,1015.4
2023-01-25T16:53:33.953Z,1015.4
2023-01-25T16:54:33.926Z,1015.4
2023-01-25T16:55:34.020Z,1015.35
2023-01-25T16:56:34.003Z,1015.39
2023-01-25T16:57:33.964Z,1015.38
2023-01-25T16:58:33.935Z,1015.37
2023-01-25T16:59:33.935Z,1015.34
2023-01-25T17:00:33.940Z,1015.33
2023-01-25T17:01:33.998Z,1015.31
2023-01-25T17:02:34.070Z,1015.25
2023-01-25T17:03:33.961Z,1015.23
2023-01-25T17:04:33.968Z,1015.29
2023-01-25T17:05:33.948Z,1015.22
2023-01-25T17:06:33.950Z,1015.23
2023-01-25T17:07:33.954Z,1015.18
2023-01-25T17:08:33.958Z,1015.17
2023-01-25T17:09:33.959Z,1015.14
2023-01-25T17:10:33.956Z,1015.12
2023-01-25T17:11:33.982Z,1015.13
2023-01-25T17:12:33.988Z,1015.11
2023-01-25T17:13:33.972Z,1015.1
2023-01-25T17:14:34.074Z,1015.12
2023-01-25T17:15:34.030Z,1015.09
2023-01-25T17:16:33.975Z,1015.11
2023-01-25T17:17:33.978Z,1015.1
2023-01-25T17:18:34.003Z,1015.09
2023-01-25T17:19:33.983Z,1015.1
2023-01-25T17:20:33.985Z,1015.09
2023-01-25T17:21:33.979Z,1015.05
2023-01-25T17:22:34.595Z,1015.07
2023-01-25T17:23:34.054Z,1015.07
2023-01-25T17:24:33.986Z,1015.05
2023-01-25T17:25:34.188Z,1015.01
2023-01-25T17:26:34.053Z,1015
2023-01-25T17:27:34.012Z,1014.99
2023-01-25T17:28:33.997Z,1014.96
2023-01-25T17:29:34.179Z,1014.96
2023-01-25T17:30:34.069Z,1014.99
2023-01-25T17:31:34.083Z,1014.99
2023-01-25T17:32:34.007Z,1015
2023-01-25T17:33:34.003Z,1015.02
2023-01-25T17:34:34.035Z,1015.03
2023-01-25T17:35:34.029Z,1015
2023-01-25T17:36:34.050Z,1015.03
2023-01-25T17:37:34.012Z,1014.97
2023-01-25T17:38:34.019Z,1014.98
2023-01-25T17:39:34.034Z,1014.95
2023-01-25T17:40:34.079Z,1014.93
2023-01-25T17:41:34.030Z,1014.87
2023-01-25T17:42:34.024Z,1014.85
2023-01-25T17:43:34.602Z,1014.88
2023-01-25T17:44:34.090Z,1014.88
2023-01-25T17:45:34.025Z,1014.84
2023-01-25T17:46:34.097Z,1014.87
2023-01-25T17:47:34.028Z,1014.86
2023-01-25T17:48:34.235Z,1014.87
2023-01-25T17:49:34.035Z,1014.85
2023-01-25T17:50:34.074Z,1014.84
2023-01-25T17:51:34.035Z,1014.81
2023-01-25T17:52:34.044Z,1014.81
2023-01-25T17:53:34.037Z,1014.8
2023-01-25T17:54:34.042Z,1014.8
2023-01-25T17:55:34.089Z,1014.79
2023-01-25T17:56:34.065Z,1014.77
2023-01-25T17:57:34.049Z,1014.76
2023-01-25T17:58:34.121Z,1014.77
2023-01-25T17:59:34.054Z,1014.73
2023-01-25T18:00:34.128Z,1014.72
2023-01-25T18:01:34.100Z,1014.71
2023-01-25T18:02:34.130Z,1014.69
2023-01-25T18:03:34.949Z,1014.69
2023-01-25T18:04:34.068Z,1014.69
2023-01-25T18:05:34.065Z,1014.65
2023-01-25T18:06:34.107Z,1014.62
2023-01-25T18:07:34.097Z,1014.6
2023-01-25T18:08:34.072Z,1014.59
2023-01-25T18:09:34.070Z,1014.57
2023-01-25T18:10:34.078Z,1014.57
2023-01-25T18:11:34.189Z,1014.58
2023-01-25T18:12:34.073Z,1014.54
2023-01-25T18:13:34.090Z,1014.51
2023-01-25T18:14:34.083Z,1014.53
2023-01-25T18:15:34.100Z,1014.49
2023-01-25T18:16:34.121Z,1014.45
2023-01-25T18:17:34.101Z,1014.45
2023-01-25T18:18:34.113Z,1014.45
2023-01-25T18:19:34.096Z,1014.43
2023-01-25T18:20:34.090Z,1014.41
2023-01-25T18:21:34.095Z,1014.42
2023-01-25T18:22:34.169Z,1014.43
2023-01-25T18:23:34.107Z,1014.42
2023-01-25T18:24:34.181Z,1014.43
2023-01-25T18:25:34.106Z,1014.46
2023-01-25T18:26:34.132Z,1014.37
2023-01-25T18:27:34.109Z,1014.39
2023-01-25T18:28:34.107Z,1014.35
2023-01-25T18:29:34.112Z,1014.35
2023-01-25T18:30:34.126Z,1014.3
2023-01-25T18:31:34.242Z,1014.3
2023-01-25T18:32:34.133Z,1014.3
2023-01-25T18:33:34.131Z,1014.27
2023-01-25T18:34:34.121Z,1014.29
2023-01-25T18:35:34.122Z,1014.33
2023-01-25T18:36:34.723Z,1014.33
2023-01-25T18:37:34.218Z,1014.35
2023-01-25T18:38:34.266Z,1014.36
2023-01-25T18:39:34.131Z,1014.33
2023-01-25T18:40:34.176Z,1014.31
2023-01-25T18:41:34.490Z,1014.29
2023-01-25T18:42:34.134Z,1014.24
2023-01-25T18:43:34.211Z,1014.25
2023-01-25T18:44:34.135Z,1014.19
2023-01-25T18:45:34.155Z,1014.19
2023-01-25T18:46:34.164Z,1014.17
2023-01-25T18:47:34.164Z,1014.18
2023-01-25T18:48:34.136Z,1014.17
2023-01-25T18:49:34.142Z,1014.16
2023-01-25T18:50:34.144Z,1014.16
2023-01-25T18:51:36.607Z,1014.11
2023-01-25T18:52:34.147Z,1014.08
2023-01-25T18:53:34.153Z,1014.05
2023-01-25T18:54:34.175Z,1014.03
2023-01-25T18:55:34.201Z,1014.01
2023-01-25T18:56:34.149Z,1014.01
2023-01-25T18:57:34.155Z,1014.02
2023-01-25T18:58:34.164Z,1014.05
2023-01-25T18:59:34.160Z,1014.04
2023-01-25T19:00:34.155Z,1014.08
2023-01-25T19:01:34.232Z,1014.08
2023-01-25T19:02:34.246Z,1014.08
2023-01-25T19:03:34.175Z,1014.09
2023-01-25T19:04:34.166Z,1014.08
2023-01-25T19:05:34.844Z,1014.04
2023-01-25T19:06:34.169Z,1014.07
2023-01-25T19:07:34.164Z,1014.01
2023-01-25T19:08:34.192Z,1013.99
2023-01-25T19:09:34.168Z,1014.06
2023-01-25T19:10:34.203Z,1014.03
2023-01-25T19:11:34.176Z,1013.98
2023-01-25T19:12:34.182Z,1013.96
2023-01-25T19:13:34.413Z,1013.95
2023-01-25T19:14:34.192Z,1013.97
2023-01-25T19:15:34.195Z,1013.94
2023-01-25T19:16:34.184Z,1013.97
2023-01-25T19:17:34.190Z,1013.92
2023-01-25T19:18:34.184Z,1013.91
2023-01-25T19:19:34.447Z,1013.91
2023-01-25T19:20:34.191Z,1013.9
2023-01-25T19:21:34.239Z,1013.89
2023-01-25T19:22:34.233Z,1013.93
2023-01-25T19:23:34.276Z,1013.86
2023-01-25T19:24:34.199Z,1013.87
2023-01-25T19:25:34.196Z,1013.88
2023-01-25T19:26:34.223Z,1013.83
2023-01-25T19:27:34.203Z,1013.81
2023-01-25T19:28:34.209Z,1013.85
2023-01-25T19:29:34.203Z,1013.8
2023-01-25T19:30:34.233Z,1013.82
2023-01-25T19:31:34.242Z,1013.83
2023-01-25T19:32:34.214Z,1013.81
2023-01-25T19:33:34.224Z,1013.81
2023-01-25T19:34:34.529Z,1013.85
2023-01-25T19:35:34.210Z,1013.82
2023-01-25T19:36:34.232Z,1013.84
2023-01-25T19:37:34.218Z,1013.83
2023-01-25T19:38:34.221Z,1013.82
2023-01-25T19:39:34.223Z,1013.8
2023-01-25T19:40:34.222Z,1013.75
2023-01-25T19:41:34.224Z,1013.71
2023-01-25T19:42:34.251Z,1013.72
2023-01-25T19:43:34.421Z,1013.69
2023-01-25T19:44:34.228Z,1013.61
2023-01-25T19:45:34.234Z,1013.63
2023-01-25T19:46:34.269Z,1013.58
2023-01-25T19:47:34.228Z,1013.62
2023-01-25T19:48:34.312Z,1013.64
2023-01-25T19:49:34.232Z,1013.63
2023-01-25T19:50:34.239Z,1013.62
2023-01-25T19:51:34.396Z,1013.61
2023-01-25T19:52:34.241Z,1013.62
2023-01-25T19:53:34.333Z,1013.63
2023-01-25T19:54:34.245Z,1013.62
2023-01-25T19:55:34.248Z,1013.6
2023-01-25T19:56:34.248Z,1013.61
2023-01-25T19:57:34.250Z,1013.58
2023-01-25T19:58:34.270Z,1013.57
2023-01-25T19:59:34.255Z,1013.55
2023-01-25T20:00:34.250Z,1013.5
2023-01-25T20:01:34.289Z,1013.46
2023-01-25T20:02:34.575Z,1013.47
2023-01-25T20:03:34.307Z,1013.45
2023-01-25T20:04:34.261Z,1013.46
2023-01-25T20:05:34.263Z,1013.43
2023-01-25T20:06:34.263Z,1013.43
2023-01-25T20:07:34.266Z,1013.43
2023-01-25T20:08:34.282Z,1013.37
2023-01-25T20:09:34.267Z,1013.38
2023-01-25T20:10:34.274Z,1013.4
2023-01-25T20:11:34.276Z,1013.4
2023-01-25T20:12:34.274Z,1013.36
2023-01-25T20:13:34.296Z,1013.35
2023-01-25T20:14:34.318Z,1013.28
2023-01-25T20:15:34.363Z,1013.29
2023-01-25T20:16:34.490Z,1013.28
2023-01-25T20:17:34.283Z,1013.23
2023-01-25T20:18:34.286Z,1013.28
2023-01-25T20:19:34.303Z,1013.26
2023-01-25T20:20:34.286Z,1013.21
2023-01-25T20:21:34.611Z,1013.26
2023-01-25T20:22:34.294Z,1013.22
2023-01-25T20:23:34.335Z,1013.19
2023-01-25T20:24:34.497Z,1013.2
2023-01-25T20:25:34.359Z,1013.16
2023-01-25T20:26:34.297Z,1013.18
2023-01-25T20:27:34.301Z,1013.14
2023-01-25T20:28:34.339Z,1013.15
2023-01-25T20:29:34.314Z,1013.07
2023-01-25T20:30:34.370Z,1013.08
2023-01-25T20:31:34.401Z,1013.02
2023-01-25T20:32:34.367Z,1013.01
2023-01-25T20:33:34.380Z,1013.01
2023-01-25T20:34:34.313Z,1012.96
2023-01-25T20:35:34.355Z,1012.98
2023-01-25T20:36:34.752Z,1013
2023-01-25T20:37:34.347Z,1013
2023-01-25T20:38:34.323Z,1012.99
2023-01-25T20:39:34.347Z,1012.96
2023-01-25T20:40:34.411Z,1012.92
2023-01-25T20:41:34.351Z,1012.89
2023-01-25T20:42:34.328Z,1012.93
2023-01-25T20:43:34.337Z,1012.92
2023-01-25T20:44:34.352Z,1012.92
2023-01-25T20:45:34.335Z,1012.92
2023-01-25T20:46:34.403Z,1012.9
2023-01-25T20:47:34.342Z,1012.87
2023-01-25T20:48:34.341Z,1012.87
2023-01-25T20:49:34.336Z,1012.86
2023-01-25T20:50:34.345Z,1012.85
2023-01-25T20:51:34.343Z,1012.84
2023-01-25T20:52:34.350Z,1012.79
2023-01-25T20:53:34.371Z,1012.75
2023-01-25T20:54:34.354Z,1012.71